Time;durP1;ratioP1;P1;durP2;ratioP2;P2;SDS_P1;SDS_P2;PMS_P1;PMS_P2;Temp;Humidity;BMP_temperature;BMP_pressure;BME280_temperature;BME280_humidity;BME280_pressure;Samples;Min_cycle;Max_cycle;Signal;HPM_P1;HPM_P2
2023/03/02 00:01:40;;;;;;;;;;;0.80;98.90;;;;;;5031528;28;20033;-82
2023/03/02 00:04:08;;;;;;;57.80;19.92;;;0.80;98.80;;;;;;5044473;28;19955;-82
2023/03/02 00:06:35;;;;;;;70.32;22.38;;;0.70;98.80;;;;;;5026492;28;20155;-82
2023/03/02 00:09:03;;;;;;;66.93;21.75;;;0.70;98.90;;;;;;5017636;28;20037;-82
2023/03/02 00:11:30;;;;;;;65.40;22.23;;;0.70;98.90;;;;;;5034236;28;20052;-82
2023/03/02 00:13:56;;;;;;;64.82;22.25;;;0.80;98.90;;;;;;5027071;28;20029;-81
2023/03/02 00:16:22;;;;;;;67.40;21.33;;;0.80;98.90;;;;;;5013932;28;20494;-82
2023/03/02 00:18:47;;;;;;;60.72;20.30;;;0.80;98.90;;;;;;5031346;28;20544;-82
2023/03/02 00:21:13;;;;;;;60.03;20.77;;;0.70;98.80;;;;;;5029457;28;20026;-82
2023/03/02 00:23:38;;;;;;;64.30;21.33;;;0.80;98.80;;;;;;5024297;28;20033;-81
2023/03/02 00:26:05;;;;;;;54.22;19.80;;;0.80;98.90;;;;;;5032568;28;20042;-81
2023/03/02 00:28:31;;;;;;;61.65;20.35;;;0.70;98.80;;;;;;5038883;28;20466;-82
2023/03/02 00:30:56;;;;;;;54.50;19.85;;;0.70;98.80;;;;;;5035014;28;20044;-82
2023/03/02 00:33:22;;;;;;;68.90;20.13;;;0.70;98.80;;;;;;5036782;28;20036;-82
2023/03/02 00:35:48;;;;;;;56.05;20.70;;;0.70;98.80;;;;;;5052984;28;20055;-81
2023/03/02 00:38:13;;;;;;;55.88;19.23;;;0.70;98.80;;;;;;5040474;28;20036;-82
2023/03/02 00:40:47;;;;;;;53.20;19.88;;;0.70;98.80;;;;;;5044618;28;20485;-82
2023/03/02 00:43:14;;;;;;;54.13;18.65;;;0.80;98.80;;;;;;5044605;28;20031;-81
2023/03/02 00:45:39;;;;;;;44.40;19.20;;;0.70;98.70;;;;;;5013577;28;20488;-82
2023/03/02 00:48:05;;;;;;;55.10;18.63;;;0.60;98.70;;;;;;5038088;28;20029;-81
2023/03/02 00:50:30;;;;;;;65.40;19.92;;;0.70;98.70;;;;;;5041539;28;20720;-82
2023/03/02 00:52:56;;;;;;;44.03;18.35;;;0.60;98.70;;;;;;5036730;28;20367;-82
2023/03/02 00:55:21;;;;;;;49.38;18.92;;;0.70;98.80;;;;;;5017727;28;20032;-82
2023/03/02 00:57:53;;;;;;;59.35;18.35;;;0.60;98.60;;;;;;5029168;28;20486;-82
2023/03/02 01:00:21;;;;;;;57.97;17.10;;;0.60;98.70;;;;;;5022214;28;20431;-82
2023/03/02 01:02:47;;;;;;;56.38;18.83;;;0.50;98.50;;;;;;5025205;28;20032;-82
2023/03/02 01:05:13;;;;;;;48.17;17.65;;;0.50;98.70;;;;;;5036925;28;20029;-82
2023/03/02 01:07:38;;;;;;;57.05;17.30;;;0.60;98.70;;;;;;5027727;28;20399;-81
2023/03/02 01:10:04;;;;;;;66.97;18.65;;;0.50;98.70;;;;;;5036441;28;20067;-81
2023/03/02 01:12:31;;;;;;;55.40;16.77;;;0.50;98.70;;;;;;5012622;28;20044;-81
2023/03/02 01:14:57;;;;;;;47.78;17.77;;;0.50;98.70;;;;;;5030480;28;20037;-82
2023/03/02 01:17:24;;;;;;;45.17;18.02;;;0.60;98.80;;;;;;5011091;28;20039;-82
2023/03/02 01:19:50;;;;;;;47.40;18.00;;;0.60;98.90;;;;;;5031958;28;20020;-82
2023/03/02 01:22:16;;;;;;;43.95;17.63;;;0.70;98.90;;;;;;5011813;28;20049;-81
2023/03/02 01:24:41;;;;;;;49.45;17.58;;;0.60;98.80;;;;;;5032575;28;20094;-82
2023/03/02 01:27:10;;;;;;;58.90;17.20;;;0.60;98.80;;;;;;5043494;28;20396;-82
2023/03/02 01:29:36;;;;;;;41.80;18.00;;;0.60;98.70;;;;;;5014970;28;20057;-82
2023/03/02 01:32:02;;;;;;;49.40;19.05;;;0.60;98.80;;;;;;5023428;28;20489;-81
2023/03/02 01:34:28;;;;;;;41.00;17.05;;;0.60;98.80;;;;;;5045586;28;20049;-81
2023/03/02 01:36:54;;;;;;;44.85;17.25;;;0.60;98.70;;;;;;5034517;28;20048;-82
2023/03/02 01:39:21;;;;;;;45.10;18.25;;;0.60;98.80;;;;;;5045167;28;20033;-80
2023/03/02 01:41:47;;;;;;;56.63;17.92;;;0.60;98.80;;;;;;5044673;28;20057;-79
2023/03/02 01:44:33;;;;;;;58.58;18.33;;;0.50;98.70;;;;;;5042472;28;20102;-79
2023/03/02 01:46:59;;;;;;;52.75;16.52;;;0.60;98.70;;;;;;5040998;28;20025;-79
2023/03/02 01:49:24;;;;;;;52.47;17.98;;;0.50;98.80;;;;;;5015593;28;20040;-80
2023/03/02 01:51:51;;;;;;;46.63;19.02;;;0.50;98.70;;;;;;5042134;28;20030;-80
2023/03/02 01:54:21;;;;;;;54.30;16.83;;;0.50;98.80;;;;;;5030574;28;20040;-79
2023/03/02 01:56:54;;;;;;;50.85;17.25;;;0.60;98.90;;;;;;5033293;28;20385;-80
2023/03/02 01:59:22;;;;;;;34.90;16.65;;;0.60;98.90;;;;;;5033056;28;20094;-80
2023/03/02 02:01:52;;;;;;;47.50;17.42;;;0.60;99.00;;;;;;5027851;28;20025;-80
2023/03/02 02:04:19;;;;;;;44.03;17.83;;;0.60;98.90;;;;;;5029456;28;20041;-80
2023/03/02 02:06:58;;;;;;;45.15;16.77;;;0.60;98.90;;;;;;5030564;28;20042;-80
2023/03/02 02:09:25;;;;;;;48.10;16.58;;;0.70;98.90;;;;;;5030716;28;20044;-80
2023/03/02 02:11:51;;;;;;;47.15;17.33;;;0.70;98.80;;;;;;5019356;28;20048;-80
2023/03/02 02:14:16;;;;;;;51.30;17.60;;;0.70;98.90;;;;;;5044479;28;20033;-82
2023/03/02 02:16:41;;;;;;;61.60;17.42;;;0.60;98.80;;;;;;5027624;28;20057;-82
2023/03/02 02:19:45;;;;;;;46.03;17.38;;;0.60;98.80;;;;;;5012204;28;20068;-82
2023/03/02 02:22:13;;;;;;;43.58;16.55;;;0.50;98.80;;;;;;5014861;28;20056;-82
2023/03/02 02:24:48;;;;;;;46.65;17.15;;;0.60;98.90;;;;;;5013786;28;20029;-82
2023/03/02 02:27:14;;;;;;;40.92;16.08;;;0.60;99.00;;;;;;5030279;28;20177;-82
2023/03/02 02:29:47;;;;;;;45.08;16.10;;;0.50;98.80;;;;;;5021421;28;20243;-82
2023/03/02 02:32:16;;;;;;;48.25;17.15;;;0.50;98.80;;;;;;5013075;28;20425;-82
2023/03/02 02:35:06;;;;;;;43.65;16.55;;;0.40;98.90;;;;;;5027750;28;20076;-82
2023/03/02 02:37:37;;;;;;;46.60;18.15;;;0.50;99.00;;;;;;5032252;28;20100;-82
2023/03/02 02:40:07;;;;;;;;;;;0.50;98.90;;;;;;5027331;28;20029;-82
2023/03/02 02:42:37;;;;;;;44.35;15.77;;;0.50;99.00;;;;;;5014162;28;19913;-83
2023/03/02 02:45:18;;;;;;;39.03;17.63;;;0.50;98.90;;;;;;5021438;28;20052;-82
2023/03/02 02:47:43;;;;;;;;;;;0.60;99.00;;;;;;5012826;28;20021;-82
2023/03/02 02:50:19;;;;;;;39.15;14.55;;;0.60;99.00;;;;;;5032009;28;19924;-82
2023/03/02 02:52:50;;;;;;;37.08;15.10;;;0.60;98.90;;;;;;5028554;28;20091;-82
2023/03/02 02:55:20;;;;;;;35.08;16.17;;;0.60;99.00;;;;;;5024698;28;20055;-82
2023/03/02 02:57:46;;;;;;;37.42;16.73;;;0.60;99.00;;;;;;5027394;28;20082;-82
2023/03/02 03:00:18;;;;;;;42.63;16.17;;;0.60;98.90;;;;;;5027223;28;20053;-83
2023/03/02 03:02:47;;;;;;;42.08;15.65;;;0.60;98.90;;;;;;5035183;28;20017;-82
2023/03/02 03:05:13;;;;;;;36.30;15.70;;;0.50;98.90;;;;;;5018125;28;20511;-82
2023/03/02 03:07:39;;;;;;;61.72;16.73;;;0.60;98.90;;;;;;5024602;28;20424;-82
2023/03/02 03:10:16;;;;;;;41.53;16.88;;;0.50;98.80;;;;;;5029390;28;20033;-82
2023/03/02 03:12:42;;;;;;;44.88;16.10;;;0.40;98.90;;;;;;5031413;28;20037;-82
2023/03/02 03:15:09;;;;;;;41.67;16.23;;;0.40;98.90;;;;;;5043217;28;20033;-82
2023/03/02 03:17:34;;;;;;;42.20;16.73;;;0.40;98.90;;;;;;5034902;28;20052;-82
2023/03/02 03:20:05;;;;;;;30.75;14.88;;;0.50;98.90;;;;;;5045667;28;20041;-82
2023/03/02 03:22:35;;;;;;;30.83;14.32;;;0.50;99.00;;;;;;5031475;28;20516;-82
2023/03/02 03:25:00;;;;;;;33.42;14.30;;;0.50;98.90;;;;;;5026750;28;20053;-82
2023/03/02 03:27:26;;;;;;;26.67;12.48;;;0.40;98.80;;;;;;5033982;28;20029;-82
2023/03/02 03:29:51;;;;;;;25.45;12.45;;;0.30;98.70;;;;;;5046725;28;20107;-83
2023/03/02 03:32:18;;;;;;;30.58;13.20;;;0.20;98.70;;;;;;5044947;28;20466;-82
2023/03/02 03:34:44;;;;;;;37.20;13.95;;;0.20;98.70;;;;;;5041683;28;20362;-82
2023/03/02 03:37:12;;;;;;;30.63;13.23;;;0.20;98.70;;;;;;5022720;28;20045;-82
2023/03/02 03:39:37;;;;;;;35.20;13.63;;;0.20;98.70;;;;;;5015274;28;20034;-82
2023/03/02 03:42:04;;;;;;;31.83;13.88;;;0.20;98.70;;;;;;5024980;28;20084;-82
2023/03/02 03:44:30;;;;;;;38.03;13.95;;;0.20;98.70;;;;;;5044574;28;20393;-82
2023/03/02 03:46:55;;;;;;;34.25;14.05;;;0.20;98.60;;;;;;5022642;28;20038;-82
2023/03/02 03:49:21;;;;;;;28.88;12.82;;;0.20;98.70;;;;;;5022351;28;20044;-82
2023/03/02 03:51:47;;;;;;;30.38;13.90;;;0.20;98.70;;;;;;5039972;28;20040;-82
2023/03/02 03:54:12;;;;;;;33.30;14.00;;;0.30;98.70;;;;;;5011143;28;20442;-82
2023/03/02 03:56:46;;;;;;;28.42;12.80;;;0.20;98.70;;;;;;5030791;28;20030;-82
2023/03/02 03:59:16;;;;;;;26.67;13.07;;;0.20;98.70;;;;;;5032784;28;20099;-82
2023/03/02 04:01:43;;;;;;;34.58;13.05;;;0.30;98.70;;;;;;5022821;28;20034;-82
2023/03/02 04:04:14;;;;;;;33.58;13.63;;;0.10;98.50;;;;;;5036319;28;20183;-82
2023/03/02 04:06:40;;;;;;;30.67;12.20;;;0.20;98.70;;;;;;5027620;28;20071;-82
2023/03/02 04:09:06;;;;;;;40.83;12.90;;;0.10;98.60;;;;;;5035337;28;20072;-82
2023/03/02 04:11:34;;;;;;;32.78;13.60;;;0.20;98.80;;;;;;5014300;28;20033;-82
2023/03/02 04:14:00;;;;;;;31.65;14.18;;;0.20;98.80;;;;;;5014019;28;20489;-82
2023/03/02 04:16:27;;;;;;;35.90;14.57;;;0.20;98.70;;;;;;5032550;28;20033;-82
2023/03/02 04:18:52;;;;;;;33.05;13.27;;;0.20;98.90;;;;;;5028629;28;20375;-82
2023/03/02 04:21:18;;;;;;;33.85;14.70;;;0.20;98.80;;;;;;5022776;28;20032;-82
2023/03/02 04:23:43;;;;;;;27.05;13.07;;;0.20;98.80;;;;;;5022649;28;20034;-82
2023/03/02 04:26:09;;;;;;;37.42;13.30;;;0.20;98.80;;;;;;5034495;28;20062;-82
2023/03/02 04:28:34;;;;;;;29.67;13.93;;;0.30;98.80;;;;;;5015625;28;20065;-83
2023/03/02 04:31:00;;;;;;;28.83;14.25;;;0.40;98.80;;;;;;5036521;28;20040;-82
2023/03/02 04:33:25;;;;;;;34.50;12.80;;;0.30;98.70;;;;;;5034488;28;20030;-82
2023/03/02 04:35:53;;;;;;;33.22;14.23;;;0.20;98.60;;;;;;5035336;28;20076;-82
2023/03/02 04:38:18;;;;;;;35.83;14.45;;;0.20;98.80;;;;;;5036714;28;20029;-82
2023/03/02 04:40:44;;;;;;;28.52;12.60;;;0.30;98.70;;;;;;5012317;28;20112;-82
2023/03/02 04:43:10;;;;;;;31.05;12.55;;;0.10;98.60;;;;;;5012729;28;20389;-82
2023/03/02 04:45:35;;;;;;;28.35;13.10;;;0.10;98.70;;;;;;5022467;28;20033;-82
2023/03/02 04:48:01;;;;;;;38.78;13.35;;;0.20;98.70;;;;;;5027827;28;20398;-82
2023/03/02 04:50:26;;;;;;;35.00;14.65;;;0.10;98.70;;;;;;5029761;28;20109;-82
2023/03/02 04:52:52;;;;;;;35.33;14.13;;;0.10;98.60;;;;;;5030246;28;20389;-82
2023/03/02 04:55:21;;;;;;;28.60;12.98;;;0.10;98.70;;;;;;5024767;28;20026;-82
2023/03/02 04:57:46;;;;;;;26.95;12.95;;;0.10;98.80;;;;;;5028414;28;20041;-82
2023/03/02 05:00:13;;;;;;;32.25;14.02;;;0.20;98.70;;;;;;5024258;28;21348;-82
2023/03/02 05:02:40;;;;;;;39.20;14.52;;;0.10;98.70;;;;;;5026254;28;20444;-82
2023/03/02 05:05:06;;;;;;;34.10;14.85;;;0.10;98.60;;;;;;5013393;28;20072;-82
2023/03/02 05:07:32;;;;;;;34.97;15.70;;;0.20;98.70;;;;;;5012742;28;20064;-82
2023/03/02 05:09:57;;;;;;;29.58;13.35;;;0.20;98.70;;;;;;5030921;28;20037;-82
2023/03/02 05:12:23;;;;;;;27.80;13.05;;;0.20;98.70;;;;;;5029463;28;20457;-82
2023/03/02 05:14:48;;;;;;;34.53;13.57;;;0.20;98.70;;;;;;5031046;28;20462;-82
2023/03/02 05:17:14;;;;;;;31.05;13.80;;;0.20;98.60;;;;;;5019910;28;20041;-82
2023/03/02 05:19:39;;;;;;;36.22;13.90;;;0.20;98.70;;;;;;5030821;28;20363;-82
2023/03/02 05:22:05;;;;;;;29.33;12.88;;;0.20;98.70;;;;;;5026540;28;20037;-82
2023/03/02 05:24:30;;;;;;;51.25;13.23;;;0.10;98.60;;;;;;5038821;28;20116;-82
2023/03/02 05:26:56;;;;;;;37.35;12.75;;;0.00;98.30;;;;;;5040796;28;20137;-83
2023/03/02 05:29:21;;;;;;;38.25;13.77;;;0.00;98.50;;;;;;5020094;28;20084;-77
2023/03/02 05:31:48;;;;;;;28.75;12.38;;;0.00;98.50;;;;;;4994737;28;20499;-76
2023/03/02 05:34:15;;;;;;;36.70;12.95;;;0.00;98.70;;;;;;5012953;28;20029;-76
2023/03/02 05:36:41;;;;;;;35.25;11.75;;;0.00;98.60;;;;;;5021530;28;20037;-75
2023/03/02 05:39:07;;;;;;;25.52;11.95;;;0.00;98.50;;;;;;5027697;28;20057;-75
2023/03/02 05:41:34;;;;;;;31.02;13.15;;;0.00;98.60;;;;;;5020263;28;20036;-75
2023/03/02 05:44:00;;;;;;;29.70;13.20;;;0.00;98.60;;;;;;5013672;28;20033;-75
2023/03/02 05:46:25;;;;;;;29.98;11.93;;;0.00;98.60;;;;;;5006545;28;20043;-75
2023/03/02 05:48:51;;;;;;;33.90;12.77;;;0.00;98.60;;;;;;4993654;28;20057;-75
2023/03/02 05:51:16;;;;;;;26.80;11.43;;;0.00;98.50;;;;;;5010177;28;20030;-75
2023/03/02 05:53:42;;;;;;;45.45;13.63;;;0.00;98.60;;;;;;5006348;28;20060;-76
2023/03/02 05:56:08;;;;;;;29.38;12.38;;;0.00;98.50;;;;;;5003556;28;20038;-75
2023/03/02 05:58:33;;;;;;;29.00;13.23;;;-3276.70;98.40;;;;;;5006848;28;20046;-75
2023/03/02 06:01:00;;;;;;;33.35;12.75;;;0.00;98.50;;;;;;5000438;28;20125;-75
2023/03/02 06:03:25;;;;;;;29.85;12.60;;;-3276.70;98.40;;;;;;4995829;28;20359;-76
2023/03/02 06:05:51;;;;;;;31.58;13.25;;;-3276.70;98.50;;;;;;5003492;28;20030;-75
2023/03/02 06:08:20;;;;;;;29.33;12.43;;;-3276.70;98.60;;;;;;5006583;28;20065;-75
2023/03/02 06:10:46;;;;;;;32.30;12.63;;;-3276.70;98.50;;;;;;5013125;28;20088;-75
2023/03/02 06:13:12;;;;;;;28.50;11.73;;;0.00;98.60;;;;;;5015623;28;20037;-75
2023/03/02 06:15:39;;;;;;;29.75;12.25;;;0.00;98.60;;;;;;5012339;28;20038;-75
2023/03/02 06:18:05;;;;;;;38.88;10.75;;;0.00;98.60;;;;;;5021026;28;20026;-75
2023/03/02 06:20:31;;;;;;;23.00;10.35;;;-3276.60;98.10;;;;;;5015555;28;20037;-75
2023/03/02 06:22:57;;;;;;;21.67;10.00;;;-3276.60;98.30;;;;;;4996493;28;20462;-75
2023/03/02 06:25:23;;;;;;;23.67;11.07;;;-3276.60;98.50;;;;;;5015434;28;20037;-75
2023/03/02 06:27:50;;;;;;;25.17;10.02;;;-3276.50;98.40;;;;;;5018709;28;20723;-75
2023/03/02 06:30:18;;;;;;;27.80;10.77;;;-3276.60;98.30;;;;;;5020434;28;20049;-75
2023/03/02 06:32:43;;;;;;;39.17;10.68;;;-3276.50;98.30;;;;;;5020894;28;20422;-75
2023/03/02 06:35:10;;;;;;;25.88;11.48;;;-3276.50;98.30;;;;;;5014977;28;20152;-75
2023/03/02 06:37:36;;;;;;;26.95;12.10;;;-3276.60;98.50;;;;;;5012379;28;20041;-75
2023/03/02 06:40:07;;;;;;;28.30;11.18;;;-3276.60;98.50;;;;;;5017037;28;20485;-75
2023/03/02 06:42:32;;;;;;;25.60;12.00;;;-3276.70;98.50;;;;;;5012290;28;20371;-75
2023/03/02 06:44:58;;;;;;;28.58;12.32;;;-3276.70;98.40;;;;;;5013109;28;20042;-76
2023/03/02 06:47:24;;;;;;;24.23;11.07;;;0.00;98.40;;;;;;5006665;28;20055;-75
2023/03/02 06:49:49;;;;;;;24.17;11.48;;;0.00;98.40;;;;;;5017954;28;20033;-75
2023/03/02 06:52:15;;;;;;;32.03;10.93;;;0.00;98.40;;;;;;5014153;28;20486;-75
2023/03/02 06:54:40;;;;;;;29.33;9.75;;;-3276.70;98.10;;;;;;5012924;28;20029;-75
2023/03/02 06:57:06;;;;;;;31.15;12.07;;;-3276.70;98.30;;;;;;5002231;28;20053;-75
2023/03/02 06:59:32;;;;;;;31.27;10.02;;;-3276.70;98.30;;;;;;5009641;28;20046;-76
2023/03/02 07:01:57;;;;;;;35.00;11.73;;;-3276.70;98.20;;;;;;5011011;28;20044;-76
2023/03/02 07:04:23;;;;;;;28.35;10.98;;;-3276.70;98.40;;;;;;5014497;28;20096;-75
2023/03/02 07:06:48;;;;;;;33.42;11.27;;;-3276.70;98.20;;;;;;5004444;28;20048;-75
2023/03/02 07:09:14;;;;;;;31.60;11.82;;;-3276.70;98.30;;;;;;5021207;28;20033;-75
2023/03/02 07:11:40;;;;;;;43.03;12.68;;;0.00;98.20;;;;;;5016899;28;20030;-76
2023/03/02 07:14:05;;;;;;;36.75;12.00;;;0.00;98.20;;;;;;5006010;28;20034;-75
2023/03/02 07:16:32;;;;;;;58.58;12.63;;;0.00;98.20;;;;;;5010641;28;20042;-75
2023/03/02 07:18:58;;;;;;;42.45;13.75;;;0.00;98.20;;;;;;4994980;28;20034;-75
2023/03/02 07:21:23;;;;;;;55.03;12.85;;;0.00;98.30;;;;;;5011499;28;20033;-75
2023/03/02 07:23:49;;;;;;;39.20;12.98;;;0.10;98.40;;;;;;5012731;28;20044;-75
2023/03/02 07:26:14;;;;;;;36.70;13.30;;;0.10;98.30;;;;;;4993845;28;20475;-75
2023/03/02 07:28:40;;;;;;;39.28;11.98;;;0.20;98.30;;;;;;5013621;28;20052;-76
2023/03/02 07:31:07;;;;;;;34.25;11.88;;;0.10;98.10;;;;;;5013093;28;20524;-76
2023/03/02 07:33:33;;;;;;;25.98;11.35;;;0.10;98.20;;;;;;5042792;28;20028;-75
2023/03/02 07:35:59;;;;;;;33.42;11.88;;;0.20;98.30;;;;;;5047285;28;20076;-75
2023/03/02 07:38:25;;;;;;;45.67;13.20;;;0.20;98.20;;;;;;5045332;28;20060;-75
2023/03/02 07:40:50;;;;;;;40.30;12.60;;;0.40;98.20;;;;;;5036348;28;20036;-73
2023/03/02 07:43:16;;;;;;;27.90;11.80;;;0.50;98.10;;;;;;5032520;28;20075;-73
2023/03/02 07:45:42;;;;;;;37.47;13.10;;;0.50;98.00;;;;;;5018336;28;20092;-72
2023/03/02 07:48:07;;;;;;;37.92;12.75;;;0.50;98.00;;;;;;5038303;28;20067;-72
2023/03/02 07:50:33;;;;;;;32.33;11.75;;;0.60;98.00;;;;;;5039150;28;20063;-72
2023/03/02 07:52:58;;;;;;;30.35;12.13;;;0.70;97.80;;;;;;5029581;28;20057;-74
2023/03/02 07:55:24;;;;;;;38.55;11.05;;;0.60;97.60;;;;;;5036686;28;20071;-73
2023/03/02 07:57:49;;;;;;;33.97;12.32;;;0.50;97.40;;;;;;5010334;28;20033;-76
2023/03/02 08:00:16;;;;;;;30.90;10.63;;;0.60;97.60;;;;;;5038246;28;20057;-75
2023/03/02 08:02:41;;;;;;;25.55;10.25;;;0.60;97.40;;;;;;5028287;28;20041;-75
2023/03/02 08:05:08;;;;;;;21.95;10.27;;;0.80;97.60;;;;;;5032533;28;20025;-75
2023/03/02 08:07:34;;;;;;;30.92;9.90;;;0.90;97.50;;;;;;5033559;28;20033;-75
2023/03/02 08:09:59;;;;;;;26.77;10.52;;;0.90;97.50;;;;;;5045565;28;20480;-75
2023/03/02 08:12:26;;;;;;;24.13;10.32;;;0.90;97.20;;;;;;5024069;28;20040;-75
2023/03/02 08:14:51;;;;;;;33.55;9.85;;;0.90;97.00;;;;;;5029792;28;20033;-76
2023/03/02 08:17:17;;;;;;;33.40;10.15;;;0.90;97.00;;;;;;5028262;28;20033;-75
2023/03/02 08:19:42;;;;;;;28.80;9.70;;;0.90;96.90;;;;;;5035869;28;20373;-75
2023/03/02 08:22:11;;;;;;;41.47;9.65;;;1.00;96.90;;;;;;5023117;28;20037;-74
2023/03/02 08:24:36;;;;;;;31.02;10.40;;;1.00;96.80;;;;;;5029521;28;20379;-75
2023/03/02 08:27:03;;;;;;;20.02;9.43;;;1.20;96.90;;;;;;5017647;28;20044;-75
2023/03/02 08:29:29;;;;;;;23.77;9.88;;;1.20;96.70;;;;;;5021341;28;20046;-76
2023/03/02 08:31:55;;;;;;;23.45;11.05;;;1.20;96.70;;;;;;4994279;28;20045;-76
2023/03/02 08:34:21;;;;;;;27.02;11.65;;;1.30;96.70;;;;;;5009016;28;20141;-76
2023/03/02 08:36:46;;;;;;;20.85;10.52;;;1.30;96.40;;;;;;5019377;28;20042;-75
2023/03/02 08:39:12;;;;;;;19.00;9.27;;;1.50;96.30;;;;;;5008854;28;20045;-75
2023/03/02 08:41:40;;;;;;;23.45;10.50;;;1.60;96.00;;;;;;5014808;28;20036;-74
2023/03/02 08:44:06;;;;;;;18.02;9.30;;;1.80;96.10;;;;;;5012185;28;20065;-75
2023/03/02 08:46:32;;;;;;;30.65;8.38;;;1.90;95.80;;;;;;5007264;28;20465;-76
2023/03/02 08:48:57;;;;;;;20.85;8.63;;;1.70;94.70;;;;;;5009838;28;20034;-76
2023/03/02 08:51:24;;;;;;;18.90;7.32;;;1.60;94.60;;;;;;5012776;28;20156;-76
2023/03/02 08:53:53;;;;;;;21.60;8.60;;;1.70;94.70;;;;;;5008784;28;20384;-76
2023/03/02 08:56:20;;;;;;;24.98;8.90;;;1.60;94.40;;;;;;5013889;28;20426;-75
2023/03/02 08:58:47;;;;;;;20.73;8.90;;;1.70;94.70;;;;;;5014945;28;20406;-76
2023/03/02 09:01:15;;;;;;;17.40;8.98;;;1.80;94.80;;;;;;5015693;28;20055;-75
2023/03/02 09:03:40;;;;;;;17.85;8.38;;;1.90;94.80;;;;;;5018458;28;20026;-77
2023/03/02 09:06:06;;;;;;;17.20;9.15;;;1.90;94.10;;;;;;5015995;28;20396;-76
2023/03/02 09:08:31;;;;;;;16.63;8.63;;;1.50;93.70;;;;;;5015706;28;20038;-76
2023/03/02 09:10:57;;;;;;;16.65;8.20;;;1.80;95.10;;;;;;5002118;28;20039;-76
2023/03/02 09:13:22;;;;;;;19.17;9.18;;;1.90;94.60;;;;;;5011281;28;20033;-76
2023/03/02 09:15:48;;;;;;;16.60;9.07;;;2.00;94.50;;;;;;5011095;28;20052;-77
2023/03/02 09:18:13;;;;;;;16.33;7.60;;;2.10;94.20;;;;;;5015038;28;20049;-76
2023/03/02 09:20:39;;;;;;;15.85;8.00;;;2.10;93.70;;;;;;5013261;28;20415;-76
2023/03/02 09:23:04;;;;;;;15.27;8.07;;;2.20;93.50;;;;;;5009441;28;20036;-76
2023/03/02 09:25:29;;;;;;;15.38;8.07;;;2.10;93.50;;;;;;5018303;28;20057;-76
2023/03/02 09:27:55;;;;;;;15.88;8.35;;;2.10;93.50;;;;;;5003044;28;20480;-76
2023/03/02 09:30:21;;;;;;;17.15;8.63;;;2.50;93.80;;;;;;5004552;28;20057;-75
2023/03/02 09:32:47;;;;;;;17.42;8.75;;;2.60;93.70;;;;;;5003412;28;20474;-76
2023/03/02 09:35:13;;;;;;;18.15;8.77;;;2.90;93.70;;;;;;5007993;28;20031;-76
2023/03/02 09:37:38;;;;;;;16.58;8.10;;;2.80;93.10;;;;;;5004887;28;20033;-76
2023/03/02 09:40:14;;;;;;;14.35;8.07;;;2.80;92.50;;;;;;5017302;28;20030;-73
2023/03/02 09:42:56;;;;;;;15.52;8.57;;;2.70;92.60;;;;;;5011231;28;20433;-73
2023/03/02 09:45:43;;;;;;;19.98;9.68;;;2.70;92.90;;;;;;5011352;28;20030;-74
2023/03/02 09:48:23;;;;;;;17.67;9.00;;;3.00;93.00;;;;;;5011328;28;20036;-73
2023/03/02 09:51:10;;;;;;;17.92;8.75;;;2.80;92.10;;;;;;5006891;28;20053;-73
2023/03/02 09:53:50;;;;;;;14.38;8.02;;;2.60;91.80;;;;;;5007595;28;20038;-73
2023/03/02 09:56:18;;;;;;;17.67;9.00;;;2.60;92.40;;;;;;5018041;28;20123;-74
2023/03/02 09:58:54;;;;;;;15.70;8.60;;;3.10;92.70;;;;;;4998150;28;20053;-73
2023/03/02 10:01:36;;;;;;;17.02;9.15;;;2.90;90.90;;;;;;4991896;28;20030;-73
2023/03/02 10:04:19;;;;;;;16.25;9.35;;;3.10;91.90;;;;;;4993330;28;20479;-74
2023/03/02 10:06:44;;;;;;;18.55;9.10;;;3.20;91.80;;;;;;5010382;28;20026;-74
2023/03/02 10:09:10;;;;;;;19.67;9.50;;;2.90;91.10;;;;;;5012185;28;20490;-74
2023/03/02 10:12:13;;;;;;;19.25;10.15;;;3.10;92.10;;;;;;5014916;28;20050;-74
2023/03/02 10:14:47;;;;;;;15.95;9.52;;;3.20;91.90;;;;;;5010126;28;20466;-74
2023/03/02 10:17:26;;;;;;;18.38;9.90;;;3.20;91.70;;;;;;5016085;28;20037;-74
2023/03/02 10:20:07;;;;;;;19.23;9.45;;;3.50;91.60;;;;;;5018797;28;20040;-75
2023/03/02 10:22:35;;;;;;;;;;;3.50;90.80;;;;;;5014222;28;20025;-74
2023/03/02 10:25:25;;;;;;;15.73;8.90;;;3.50;91.00;;;;;;5003009;28;20306;-74
2023/03/02 10:27:58;;;;;;;18.60;9.50;;;3.50;90.70;;;;;;5010302;28;20033;-75
2023/03/02 10:30:31;;;;;;;18.92;10.18;;;3.60;91.10;;;;;;5030918;28;20053;-74
2023/03/02 10:33:08;;;;;;;20.13;10.73;;;3.70;91.00;;;;;;5033710;28;20068;-74
2023/03/02 10:35:48;;;;;;;18.67;10.23;;;3.80;90.60;;;;;;5025578;28;20050;-76
2023/03/02 10:38:16;;;;;;;19.60;10.05;;;4.00;91.00;;;;;;5034835;28;20080;-74
2023/03/02 10:40:46;;;;;;;17.40;10.18;;;4.10;90.10;;;;;;5031904;28;20159;-75
2023/03/02 10:43:45;;;;;;;19.98;11.05;;;4.00;90.20;;;;;;5014739;28;20029;-75
2023/03/02 10:46:12;;;;;;;17.90;10.68;;;3.70;90.80;;;;;;5028052;28;20038;-74
2023/03/02 10:48:59;;;;;;;20.52;10.73;;;3.40;90.20;;;;;;5024942;28;20492;-74
2023/03/02 10:51:36;;;;;;;18.38;10.27;;;3.40;91.50;;;;;;5032114;28;20048;-74
2023/03/02 10:54:13;;;;;;;20.38;10.23;;;3.60;91.60;;;;;;5043295;28;20071;-74
2023/03/02 10:56:42;;;;;;;16.83;9.68;;;3.70;91.20;;;;;;5026495;28;20037;-74
2023/03/02 10:59:43;;;;;;;18.20;10.00;;;3.90;91.10;;;;;;5036682;28;20462;-74
2023/03/02 11:02:22;;;;;;;18.13;9.40;;;3.90;90.50;;;;;;5050652;28;20025;-75
2023/03/02 11:04:52;;;;;;;17.85;10.93;;;4.00;90.10;;;;;;5033639;28;20057;-74
2023/03/02 11:07:19;;;;;;;20.63;10.90;;;4.10;89.80;;;;;;5046623;28;20118;-74
2023/03/02 11:10:18;;;;;;;17.70;9.57;;;4.30;90.40;;;;;;5035397;28;20528;-75
2023/03/02 11:12:46;;;;;;;19.08;9.80;;;4.10;90.10;;;;;;5003006;28;20069;-75
2023/03/02 11:15:41;;;;;;;18.25;10.55;;;4.40;89.70;;;;;;5038893;28;20029;-74
2023/03/02 11:18:14;;;;;;;20.10;10.52;;;4.20;89.60;;;;;;5044283;28;20048;-74
2023/03/02 11:20:47;;;;;;;17.48;9.90;;;4.40;89.80;;;;;;5035296;28;20033;-74
2023/03/02 11:23:34;;;;;;;21.08;11.20;;;4.40;88.90;;;;;;5035007;28;20136;-75
2023/03/02 11:26:06;;;;;;;19.40;10.27;;;4.60;89.50;;;;;;5024039;28;20112;-74
2023/03/02 11:28:42;;;;;;;18.88;10.52;;;4.60;89.30;;;;;;5022088;28;20058;-74
2023/03/02 11:31:36;;;;;;;21.92;11.18;;;4.60;88.20;;;;;;5027376;28;20033;-74
2023/03/02 11:34:23;;;;;;;18.63;10.27;;;4.60;88.70;;;;;;5037378;28;20045;-74
2023/03/02 11:36:52;;;;;;;21.25;10.90;;;4.80;89.60;;;;;;5044383;28;20037;-74
2023/03/02 11:39:24;;;;;;;21.38;11.98;;;4.90;88.40;;;;;;5041300;28;20033;-74
2023/03/02 11:41:52;;;;;;;18.33;10.85;;;4.60;88.80;;;;;;5039458;28;20029;-74
2023/03/02 11:44:19;;;;;;;19.73;11.50;;;4.50;88.70;;;;;;5041702;28;20068;-74
2023/03/02 11:46:48;;;;;;;21.50;11.07;;;4.60;89.80;;;;;;5034429;28;20045;-74
2023/03/02 11:49:32;;;;;;;18.58;10.32;;;4.70;89.10;;;;;;5039106;28;20108;-74
2023/03/02 11:51:59;;;;;;;19.35;10.70;;;4.40;89.70;;;;;;5015369;28;20037;-74
2023/03/02 11:54:42;;;;;;;21.05;11.18;;;4.50;89.20;;;;;;5033481;28;20174;-74
2023/03/02 11:57:21;;;;;;;19.27;11.13;;;4.60;89.70;;;;;;5020012;28;20095;-75
2023/03/02 11:59:49;;;;;;;19.38;10.52;;;4.90;89.40;;;;;;5026533;28;20034;-74
2023/03/02 12:02:15;;;;;;;22.65;12.27;;;4.60;88.80;;;;;;5030471;28;20057;-75
2023/03/02 12:04:40;;;;;;;19.77;11.43;;;4.80;89.10;;;;;;5035703;28;20106;-75
2023/03/02 12:07:17;;;;;;;18.30;10.40;;;5.10;89.40;;;;;;5026052;28;20030;-74
2023/03/02 12:09:42;;;;;;;21.05;12.00;;;5.20;88.80;;;;;;5028502;28;20025;-74
2023/03/02 12:12:31;;;;;;;22.48;12.65;;;5.20;88.50;;;;;;5038895;28;20508;-74
2023/03/02 12:14:57;;;;;;;23.25;12.52;;;5.50;89.00;;;;;;5026619;28;20087;-74
2023/03/02 12:17:25;;;;;;;22.10;13.02;;;5.30;87.20;;;;;;5032068;28;20041;-74
2023/03/02 12:19:54;;;;;;;24.08;13.60;;;5.20;87.40;;;;;;5033725;28;20029;-75
2023/03/02 12:22:30;;;;;;;20.73;13.13;;;5.40;87.90;;;;;;5047678;28;20393;-75
2023/03/02 12:25:19;;;;;;;24.17;13.43;;;5.30;87.20;;;;;;5014333;28;20048;-75
2023/03/02 12:27:48;;;;;;;22.98;14.13;;;5.20;87.50;;;;;;5032366;28;20434;-74
2023/03/02 12:30:23;;;;;;;25.00;13.95;;;5.10;87.50;;;;;;5038075;28;20058;-74
2023/03/02 12:33:10;;;;;;;24.35;15.00;;;5.10;87.80;;;;;;5035218;28;20405;-74
2023/03/02 12:35:37;;;;;;;24.75;14.77;;;5.30;88.20;;;;;;5017484;28;20102;-75
2023/03/02 12:38:28;;;;;;;29.92;16.63;;;5.10;87.50;;;;;;5030190;28;20045;-74
2023/03/02 12:41:16;;;;;;;29.48;16.60;;;5.10;88.20;;;;;;5025417;28;20025;-75
2023/03/02 12:44:03;;;;;;;30.58;17.02;;;5.20;88.00;;;;;;5019819;28;20112;-75
2023/03/02 12:46:35;;;;;;;29.50;17.48;;;5.20;87.80;;;;;;5036275;28;20025;-74